LFMDLFKC

Guest
Details From LFMD - Mandelieu
To LFKC - St Catherine
Flight Number -
Tags generated
Created
Modified
Stats Distance 101 nm / 187 km
Max Altitude 7,900 ft / 2,408 m
Waypoints 3
Social Downloads 0
Likes 0
Share VATSIM

Download

Looking for another format? Having issues loading an existing format? Contact us
Advertisement - Login to hide

Notes

Basic altitude profile: - Ascent Rate: 1200ft/min - Ascent Speed: 170kts - Cruise Altitude: 10000ft - Cruise Speed: 280kts - Descent Rate: 1500ft/min - Descent Speed: 200kts Options: - Use NATs: yes - Use PACOTS: yes - Use low airways: yes - Use high airways: yes

Route

LFMD EBORA LFKC

ID Type Via Altitude (ft/m) Position (lat/lon) Dist (leg/tot) Name
O LFMD APT - 0 / 0 43.54673 / 6.95310 - / 0 nm Mandelieu
EBORA FIX - 7,900 / 2,408 43.32778 / 7.36250 22 / 22 nm
O LFKC APT - 0 / 0 42.53076 / 8.79292 79 / 101 nm St Catherine

Altitude Profile

Advertisement - Login to hide

LFMD

Details ICAO LFMD (CEQ)
Name Mandelieu
Region France
Timezone Europe/Paris (UTC+1.0)
Stats Elevation 12 ft / 4 m (AMSL)
Location 43.546700° 6.953100°
Runways 3
Magnetic Variation 2.214° E

METAR

LFMD 281200Z AUTO 17010KT 130V190 CAVOK 18/09 Q1014

Decode

TAF

Not found

Departure Runways

ID Width Length Bearing (true/mag) Surface Threshold Overrun Markings Lighting
05 98 ft / 30 m 2,430 ft / 741 m 45.28° / 43.07° ASPHALT 295 ft / 90 m 0 ft / 0 m VISUAL
17 148 ft / 45 m 5,287 ft / 1,611 m 172.58° / 170.37° ASPHALT 689 ft / 210 m 0 ft / 0 m PREC-APP EDGE THRESHOLD REIL-OMNI
17L 164 ft / 50 m 1,872 ft / 571 m 172.60° / 170.39° GRASS 0 ft / 0 m 0 ft / 0 m NONE
23 98 ft / 30 m 2,430 ft / 741 m 225.28° / 223.07° ASPHALT 98 ft / 30 m 0 ft / 0 m VISUAL
35 148 ft / 45 m 5,287 ft / 1,611 m 352.58° / 350.37° ASPHALT 1,148 ft / 350 m 0 ft / 0 m PREC-APP EDGE THRESHOLD REIL-OMNI
35R 164 ft / 50 m 1,872 ft / 571 m 352.60° / 350.39° GRASS 0 ft / 0 m 0 ft / 0 m NONE

LFKC

Details ICAO LFKC (CLY)
Name St Catherine
Region France
Timezone Europe/Paris (UTC+1.0)
Stats Elevation 208 ft / 63 m (AMSL)
Location 42.530800° 8.792980°
Runways 1
Magnetic Variation 2.591° E

METAR

LFKC 281200Z AUTO 34008KT 300V010 9999 FEW040 BKN100 15/08 Q1014 NOSIG

Decode

TAF

TAF LFKC 280800Z 2809/2909 18005KT 9999 SCT030 TX15/2812Z TN06/2904Z TEMPO 2810/2816 35010KT

Decode

Destination Runways

ID Width Length Bearing (true/mag) Surface Threshold Overrun Markings Lighting
18 131 ft / 40 m 7,586 ft / 2,312 m 179.81° / 177.22° CONCRETE 0 ft / 0 m 0 ft / 0 m APP CENTERLINE EDGE THRESHOLD
36 131 ft / 40 m 7,586 ft / 2,312 m 359.81° / 357.22° CONCRETE 663 ft / 202 m 0 ft / 0 m APP CENTERLINE EDGE THRESHOLD ALSF-I

Approach Navaids

Runway Type Ident Frequency Range Bearing (true/mag) Slope Elevation
18 DME CLI 109.50 MHz 18 nm / 33 km - - 230 ft / 70 m (AMSL)
18 LOC-LOC CLI 109.50 MHz 18 nm / 33 km 179.81° / 177.22 ° - 208 ft / 63 m (AMSL)

Popular Alternatives